sensor_id;sensor_type;location;lat;lon;timestamp;temperature;humidity
13091;DHT22;6611;52.604;13.438;2023-04-24T00:01:43;11.17;84.82
13091;DHT22;6611;52.604;13.438;2023-04-24T00:06:46;11.15;84.99
13091;DHT22;6611;52.604;13.438;2023-04-24T00:11:50;11.15;85.14
13091;DHT22;6611;52.604;13.438;2023-04-24T00:16:51;11.15;85.04
13091;DHT22;6611;52.604;13.438;2023-04-24T00:21:54;11.11;85.37
13091;DHT22;6611;52.604;13.438;2023-04-24T00:26:56;11.10;85.35
13091;DHT22;6611;52.604;13.438;2023-04-24T00:31:58;11.13;85.39
13091;DHT22;6611;52.604;13.438;2023-04-24T00:37:01;11.14;85.39
13091;DHT22;6611;52.604;13.438;2023-04-24T00:42:03;11.13;85.52
13091;DHT22;6611;52.604;13.438;2023-04-24T00:47:07;11.13;85.45
13091;DHT22;6611;52.604;13.438;2023-04-24T00:52:10;11.06;85.65
13091;DHT22;6611;52.604;13.438;2023-04-24T00:57:13;11.04;85.85
13091;DHT22;6611;52.604;13.438;2023-04-24T01:02:15;10.94;86.14
13091;DHT22;6611;52.604;13.438;2023-04-24T01:07:20;11.00;85.89
13091;DHT22;6611;52.604;13.438;2023-04-24T01:12:22;10.94;86.31
13091;DHT22;6611;52.604;13.438;2023-04-24T01:17:23;10.92;86.47
13091;DHT22;6611;52.604;13.438;2023-04-24T01:22:26;10.97;86.46
13091;DHT22;6611;52.604;13.438;2023-04-24T01:27:28;11.06;86.15
13091;DHT22;6611;52.604;13.438;2023-04-24T01:32:30;11.00;86.27
13091;DHT22;6611;52.604;13.438;2023-04-24T01:37:33;10.93;86.62
13091;DHT22;6611;52.604;13.438;2023-04-24T01:42:37;10.97;86.65
13091;DHT22;6611;52.604;13.438;2023-04-24T01:47:39;11.07;86.36
13091;DHT22;6611;52.604;13.438;2023-04-24T01:52:42;11.03;86.79
13091;DHT22;6611;52.604;13.438;2023-04-24T01:57:44;11.06;86.85
13091;DHT22;6611;52.604;13.438;2023-04-24T02:02:46;11.14;86.90
13091;DHT22;6611;52.604;13.438;2023-04-24T02:07:49;11.22;86.70
13091;DHT22;6611;52.604;13.438;2023-04-24T02:12:50;11.20;86.58
13091;DHT22;6611;52.604;13.438;2023-04-24T02:17:52;11.18;86.67
13091;DHT22;6611;52.604;13.438;2023-04-24T02:22:55;11.22;86.68
13091;DHT22;6611;52.604;13.438;2023-04-24T02:27:57;11.18;86.55
13091;DHT22;6611;52.604;13.438;2023-04-24T02:32:58;11.11;86.30
13091;DHT22;6611;52.604;13.438;2023-04-24T02:38:01;11.11;86.70
13091;DHT22;6611;52.604;13.438;2023-04-24T02:43:03;11.07;86.75
13091;DHT22;6611;52.604;13.438;2023-04-24T02:48:05;11.07;86.94
13091;DHT22;6611;52.604;13.438;2023-04-24T02:53:08;11.06;86.92
13091;DHT22;6611;52.604;13.438;2023-04-24T02:58:09;11.03;86.84
13091;DHT22;6611;52.604;13.438;2023-04-24T03:03:13;11.10;86.97
13091;DHT22;6611;52.604;13.438;2023-04-24T03:08:17;11.14;87.06
13091;DHT22;6611;52.604;13.438;2023-04-24T03:13:19;11.14;87.17
13091;DHT22;6611;52.604;13.438;2023-04-24T03:18:20;11.15;87.20
13091;DHT22;6611;52.604;13.438;2023-04-24T03:23:23;11.21;87.30
13091;DHT22;6611;52.604;13.438;2023-04-24T03:28:25;11.31;87.04
13091;DHT22;6611;52.604;13.438;2023-04-24T03:33:27;11.35;86.97
13091;DHT22;6611;52.604;13.438;2023-04-24T03:38:30;11.39;86.93
13091;DHT22;6611;52.604;13.438;2023-04-24T03:43:32;11.39;87.13
13091;DHT22;6611;52.604;13.438;2023-04-24T03:48:34;11.43;86.98
13091;DHT22;6611;52.604;13.438;2023-04-24T03:53:37;11.46;87.35
13091;DHT22;6611;52.604;13.438;2023-04-24T03:58:39;11.54;87.19
13091;DHT22;6611;52.604;13.438;2023-04-24T04:03:41;11.67;86.81
13091;DHT22;6611;52.604;13.438;2023-04-24T04:08:44;11.76;86.45
13091;DHT22;6611;52.604;13.438;2023-04-24T04:13:46;11.80;86.18
13091;DHT22;6611;52.604;13.438;2023-04-24T04:18:48;11.86;86.19
13091;DHT22;6611;52.604;13.438;2023-04-24T04:23:51;11.94;85.97
13091;DHT22;6611;52.604;13.438;2023-04-24T04:28:53;11.93;86.03
13091;DHT22;6611;52.604;13.438;2023-04-24T04:33:54;11.95;85.94
13091;DHT22;6611;52.604;13.438;2023-04-24T04:38:57;12.00;85.62
13091;DHT22;6611;52.604;13.438;2023-04-24T04:44:00;12.02;85.42
13091;DHT22;6611;52.604;13.438;2023-04-24T04:49:04;12.08;85.49
13091;DHT22;6611;52.604;13.438;2023-04-24T04:54:07;12.16;85.23
13091;DHT22;6611;52.604;13.438;2023-04-24T04:59:09;12.31;84.47
13091;DHT22;6611;52.604;13.438;2023-04-24T05:04:11;12.46;83.65
13091;DHT22;6611;52.604;13.438;2023-04-24T05:09:14;12.60;83.04
13091;DHT22;6611;52.604;13.438;2023-04-24T05:14:16;12.70;82.73
13091;DHT22;6611;52.604;13.438;2023-04-24T05:19:19;12.76;82.04
13091;DHT22;6611;52.604;13.438;2023-04-24T05:24:22;12.88;81.90
13091;DHT22;6611;52.604;13.438;2023-04-24T05:29:24;12.91;81.98
13091;DHT22;6611;52.604;13.438;2023-04-24T05:34:26;13.16;80.79
13091;DHT22;6611;52.604;13.438;2023-04-24T05:39:29;13.65;79.36
13091;DHT22;6611;52.604;13.438;2023-04-24T05:44:31;13.77;78.12
13091;DHT22;6611;52.604;13.438;2023-04-24T05:49:32;13.84;77.93
13091;DHT22;6611;52.604;13.438;2023-04-24T05:54:35;14.00;76.28
13091;DHT22;6611;52.604;13.438;2023-04-24T05:59:37;14.10;75.99
13091;DHT22;6611;52.604;13.438;2023-04-24T06:04:39;14.15;75.80
13091;DHT22;6611;52.604;13.438;2023-04-24T06:09:43;14.40;74.47
13091;DHT22;6611;52.604;13.438;2023-04-24T06:14:44;14.79;74.09
13091;DHT22;6611;52.604;13.438;2023-04-24T06:19:46;15.25;71.96
13091;DHT22;6611;52.604;13.438;2023-04-24T06:24:49;15.56;70.10
13091;DHT22;6611;52.604;13.438;2023-04-24T06:29:51;15.24;71.32
13091;DHT22;6611;52.604;13.438;2023-04-24T06:34:54;15.26;72.45
13091;DHT22;6611;52.604;13.438;2023-04-24T06:39:57;15.71;69.92
13091;DHT22;6611;52.604;13.438;2023-04-24T06:44:59;16.59;67.48
13091;DHT22;6611;52.604;13.438;2023-04-24T06:50:01;17.12;64.21
13091;DHT22;6611;52.604;13.438;2023-04-24T06:55:05;17.33;64.07
13091;DHT22;6611;52.604;13.438;2023-04-24T07:00:08;17.18;63.78
13091;DHT22;6611;52.604;13.438;2023-04-24T07:05:10;17.46;62.62
13091;DHT22;6611;52.604;13.438;2023-04-24T07:10:14;17.63;61.82
13091;DHT22;6611;52.604;13.438;2023-04-24T07:15:16;17.35;61.21
13091;DHT22;6611;52.604;13.438;2023-04-24T07:20:17;17.26;62.33
13091;DHT22;6611;52.604;13.438;2023-04-24T07:25:21;17.74;60.58
13091;DHT22;6611;52.604;13.438;2023-04-24T07:30:23;18.34;58.16
13091;DHT22;6611;52.604;13.438;2023-04-24T07:35:26;18.47;57.54
13091;DHT22;6611;52.604;13.438;2023-04-24T07:40:29;18.63;56.08
13091;DHT22;6611;52.604;13.438;2023-04-24T07:45:31;18.36;54.67
13091;DHT22;6611;52.604;13.438;2023-04-24T07:50:36;18.04;56.85
13091;DHT22;6611;52.604;13.438;2023-04-24T07:55:39;18.28;56.59
13091;DHT22;6611;52.604;13.438;2023-04-24T08:00:41;18.84;55.69
13091;DHT22;6611;52.604;13.438;2023-04-24T08:05:42;19.24;50.84
13091;DHT22;6611;52.604;13.438;2023-04-24T08:10:45;19.31;50.53
13091;DHT22;6611;52.604;13.438;2023-04-24T08:15:47;19.31;50.87
13091;DHT22;6611;52.604;13.438;2023-04-24T08:20:49;19.56;51.46
13091;DHT22;6611;52.604;13.438;2023-04-24T08:25:52;19.27;49.95
13091;DHT22;6611;52.604;13.438;2023-04-24T08:30:53;18.81;53.11
13091;DHT22;6611;52.604;13.438;2023-04-24T08:35:55;18.53;52.51
13091;DHT22;6611;52.604;13.438;2023-04-24T08:40:59;18.53;53.83
13091;DHT22;6611;52.604;13.438;2023-04-24T08:46:01;18.84;50.53
13091;DHT22;6611;52.604;13.438;2023-04-24T08:51:07;18.94;51.99
13091;DHT22;6611;52.604;13.438;2023-04-24T08:56:11;18.53;53.23
13091;DHT22;6611;52.604;13.438;2023-04-24T09:01:13;18.84;51.82
13091;DHT22;6611;52.604;13.438;2023-04-24T09:06:14;19.08;52.22
13091;DHT22;6611;52.604;13.438;2023-04-24T09:11:18;19.03;50.89
13091;DHT22;6611;52.604;13.438;2023-04-24T09:16:20;18.54;50.86
13091;DHT22;6611;52.604;13.438;2023-04-24T09:21:23;18.56;50.27
13091;DHT22;6611;52.604;13.438;2023-04-24T09:26:29;18.47;53.20
13091;DHT22;6611;52.604;13.438;2023-04-24T09:31:32;18.46;51.44
13091;DHT22;6611;52.604;13.438;2023-04-24T09:36:35;18.33;52.98
13091;DHT22;6611;52.604;13.438;2023-04-24T09:41:45;18.28;52.70
13091;DHT22;6611;52.604;13.438;2023-04-24T09:46:49;17.70;54.00
13091;DHT22;6611;52.604;13.438;2023-04-24T09:51:52;17.56;55.13
13091;DHT22;6611;52.604;13.438;2023-04-24T09:56:55;17.77;54.97
13091;DHT22;6611;52.604;13.438;2023-04-24T10:01:57;17.71;56.61
13091;DHT22;6611;52.604;13.438;2023-04-24T10:06:59;17.80;56.42
13091;DHT22;6611;52.604;13.438;2023-04-24T10:12:02;18.16;57.00
13091;DHT22;6611;52.604;13.438;2023-04-24T10:17:05;18.61;55.21
13091;DHT22;6611;52.604;13.438;2023-04-24T10:22:07;18.85;54.77
13091;DHT22;6611;52.604;13.438;2023-04-24T10:27:11;19.37;52.32
13091;DHT22;6611;52.604;13.438;2023-04-24T10:32:15;19.30;54.49
13091;DHT22;6611;52.604;13.438;2023-04-24T10:37:17;19.43;52.35
13091;DHT22;6611;52.604;13.438;2023-04-24T10:42:20;18.75;54.76
13091;DHT22;6611;52.604;13.438;2023-04-24T10:47:23;18.32;55.93
13091;DHT22;6611;52.604;13.438;2023-04-24T10:52:43;17.78;57.46
13091;DHT22;6611;52.604;13.438;2023-04-24T10:58:02;17.61;57.08
13091;DHT22;6611;52.604;13.438;2023-04-24T11:03:05;17.64;56.06
13091;DHT22;6611;52.604;13.438;2023-04-24T11:08:11;17.61;56.68
13091;DHT22;6611;52.604;13.438;2023-04-24T11:13:16;17.78;55.62
13091;DHT22;6611;52.604;13.438;2023-04-24T11:18:18;18.43;53.90
13091;DHT22;6611;52.604;13.438;2023-04-24T11:23:20;18.50;53.00
13091;DHT22;6611;52.604;13.438;2023-04-24T11:28:24;18.75;53.58
13091;DHT22;6611;52.604;13.438;2023-04-24T11:33:26;19.50;53.19
13091;DHT22;6611;52.604;13.438;2023-04-24T11:38:28;19.43;51.58
13091;DHT22;6611;52.604;13.438;2023-04-24T11:43:32;18.67;52.95
13091;DHT22;6611;52.604;13.438;2023-04-24T11:48:34;17.94;61.58
13091;DHT22;6611;52.604;13.438;2023-04-24T11:53:40;16.74;70.93
13091;DHT22;6611;52.604;13.438;2023-04-24T11:58:44;15.69;76.13
13091;DHT22;6611;52.604;13.438;2023-04-24T12:03:47;15.28;76.73
13091;DHT22;6611;52.604;13.438;2023-04-24T12:08:52;15.02;80.42
13091;DHT22;6611;52.604;13.438;2023-04-24T12:13:56;15.91;77.52
13091;DHT22;6611;52.604;13.438;2023-04-24T12:18:58;16.92;74.65
13091;DHT22;6611;52.604;13.438;2023-04-24T12:24:00;17.71;72.31
13091;DHT22;6611;52.604;13.438;2023-04-24T12:29:03;17.77;68.77
13091;DHT22;6611;52.604;13.438;2023-04-24T12:34:17;17.89;69.23
13091;DHT22;6611;52.604;13.438;2023-04-24T12:39:19;18.17;69.62
13091;DHT22;6611;52.604;13.438;2023-04-24T12:44:32;18.64;67.00
13091;DHT22;6611;52.604;13.438;2023-04-24T12:49:34;19.19;63.05
13091;DHT22;6611;52.604;13.438;2023-04-24T12:54:36;18.65;61.35
13091;DHT22;6611;52.604;13.438;2023-04-24T12:59:39;18.19;57.36
13091;DHT22;6611;52.604;13.438;2023-04-24T13:04:41;17.82;60.39
13091;DHT22;6611;52.604;13.438;2023-04-24T13:09:44;17.51;58.97
13091;DHT22;6611;52.604;13.438;2023-04-24T13:14:47;18.15;61.60
13091;DHT22;6611;52.604;13.438;2023-04-24T13:19:49;18.57;55.58
13091;DHT22;6611;52.604;13.438;2023-04-24T13:24:51;18.63;56.93
13091;DHT22;6611;52.604;13.438;2023-04-24T13:29:54;18.13;56.90
13091;DHT22;6611;52.604;13.438;2023-04-24T13:34:56;18.36;56.85
13091;DHT22;6611;52.604;13.438;2023-04-24T13:39:58;18.37;56.07
13091;DHT22;6611;52.604;13.438;2023-04-24T13:45:01;17.85;57.34
13091;DHT22;6611;52.604;13.438;2023-04-24T13:50:04;18.17;62.47
13091;DHT22;6611;52.604;13.438;2023-04-24T13:55:07;18.40;56.49
13091;DHT22;6611;52.604;13.438;2023-04-24T14:00:11;18.68;55.93
13091;DHT22;6611;52.604;13.438;2023-04-24T14:05:13;18.71;54.65
13091;DHT22;6611;52.604;13.438;2023-04-24T14:10:15;19.36;52.38
13091;DHT22;6611;52.604;13.438;2023-04-24T14:15:18;19.43;51.01
13091;DHT22;6611;52.604;13.438;2023-04-24T14:20:20;18.78;49.87
13091;DHT22;6611;52.604;13.438;2023-04-24T14:25:22;18.71;47.22
13091;DHT22;6611;52.604;13.438;2023-04-24T14:30:25;18.34;49.50
13091;DHT22;6611;52.604;13.438;2023-04-24T14:35:27;18.47;46.15
13091;DHT22;6611;52.604;13.438;2023-04-24T14:40:28;19.16;46.13
13091;DHT22;6611;52.604;13.438;2023-04-24T14:45:32;19.18;43.05
13091;DHT22;6611;52.604;13.438;2023-04-24T14:50:35;18.37;42.57
13091;DHT22;6611;52.604;13.438;2023-04-24T14:55:36;18.16;45.05
13091;DHT22;6611;52.604;13.438;2023-04-24T15:00:39;18.77;44.34
13091;DHT22;6611;52.604;13.438;2023-04-24T15:05:41;19.03;40.76
13091;DHT22;6611;52.604;13.438;2023-04-24T15:10:43;18.51;40.95
13091;DHT22;6611;52.604;13.438;2023-04-24T15:15:47;18.02;43.32
13091;DHT22;6611;52.604;13.438;2023-04-24T15:20:48;17.97;44.26
13091;DHT22;6611;52.604;13.438;2023-04-24T15:25:50;17.75;44.52
13091;DHT22;6611;52.604;13.438;2023-04-24T15:30:53;17.70;44.93
13091;DHT22;6611;52.604;13.438;2023-04-24T15:35:55;17.75;44.04
13091;DHT22;6611;52.604;13.438;2023-04-24T15:40:56;17.37;42.30
13091;DHT22;6611;52.604;13.438;2023-04-24T15:45:59;16.92;44.94
13091;DHT22;6611;52.604;13.438;2023-04-24T15:51:01;16.67;46.56
13091;DHT22;6611;52.604;13.438;2023-04-24T15:56:03;16.49;45.69
13091;DHT22;6611;52.604;13.438;2023-04-24T16:01:07;16.42;46.45
13091;DHT22;6611;52.604;13.438;2023-04-24T16:06:08;16.36;45.89
13091;DHT22;6611;52.604;13.438;2023-04-24T16:11:10;16.22;46.18
13091;DHT22;6611;52.604;13.438;2023-04-24T16:16:13;16.01;46.29
13091;DHT22;6611;52.604;13.438;2023-04-24T16:21:15;15.95;45.92
13091;DHT22;6611;52.604;13.438;2023-04-24T16:26:16;15.91;46.22
13091;DHT22;6611;52.604;13.438;2023-04-24T16:31:19;15.93;46.69
13091;DHT22;6611;52.604;13.438;2023-04-24T16:36:21;16.02;47.15
13091;DHT22;6611;52.604;13.438;2023-04-24T16:41:23;15.98;48.38
13091;DHT22;6611;52.604;13.438;2023-04-24T16:46:26;16.00;47.88
13091;DHT22;6611;52.604;13.438;2023-04-24T16:51:28;15.61;52.98
13091;DHT22;6611;52.604;13.438;2023-04-24T16:56:29;15.28;54.54
13091;DHT22;6611;52.604;13.438;2023-04-24T17:01:33;14.98;55.83
13091;DHT22;6611;52.604;13.438;2023-04-24T17:06:35;14.74;56.79
13091;DHT22;6611;52.604;13.438;2023-04-24T17:11:36;14.56;58.74
13091;DHT22;6611;52.604;13.438;2023-04-24T17:16:39;14.55;58.35
13091;DHT22;6611;52.604;13.438;2023-04-24T17:21:41;14.45;58.78
13091;DHT22;6611;52.604;13.438;2023-04-24T17:26:43;13.98;62.46
13091;DHT22;6611;52.604;13.438;2023-04-24T17:31:46;13.81;63.92
13091;DHT22;6611;52.604;13.438;2023-04-24T17:36:47;13.69;67.16
13091;DHT22;6611;52.604;13.438;2023-04-24T17:41:50;13.26;66.83
13091;DHT22;6611;52.604;13.438;2023-04-24T17:46:53;13.28;67.00
13091;DHT22;6611;52.604;13.438;2023-04-24T17:51:54;13.18;65.54
13091;DHT22;6611;52.604;13.438;2023-04-24T17:56:56;13.07;65.04
13091;DHT22;6611;52.604;13.438;2023-04-24T18:01:59;13.05;65.35
13091;DHT22;6611;52.604;13.438;2023-04-24T18:07:01;13.03;64.79
13091;DHT22;6611;52.604;13.438;2023-04-24T18:12:04;12.98;65.11
13091;DHT22;6611;52.604;13.438;2023-04-24T18:17:07;12.97;65.80
13091;DHT22;6611;52.604;13.438;2023-04-24T18:22:08;13.01;63.25
13091;DHT22;6611;52.604;13.438;2023-04-24T18:27:10;12.88;63.09
13091;DHT22;6611;52.604;13.438;2023-04-24T18:32:13;12.88;61.61
13091;DHT22;6611;52.604;13.438;2023-04-24T18:37:15;12.57;61.84
13091;DHT22;6611;52.604;13.438;2023-04-24T18:42:17;12.55;62.50
13091;DHT22;6611;52.604;13.438;2023-04-24T18:47:20;12.41;62.46
13091;DHT22;6611;52.604;13.438;2023-04-24T18:52:22;12.34;63.68
13091;DHT22;6611;52.604;13.438;2023-04-24T18:57:24;12.20;63.71
13091;DHT22;6611;52.604;13.438;2023-04-24T19:02:27;12.04;63.42
13091;DHT22;6611;52.604;13.438;2023-04-24T19:07:29;11.77;64.56
13091;DHT22;6611;52.604;13.438;2023-04-24T19:12:31;11.69;64.67
13091;DHT22;6611;52.604;13.438;2023-04-24T19:17:34;11.45;64.49
13091;DHT22;6611;52.604;13.438;2023-04-24T19:22:36;11.29;64.77
13091;DHT22;6611;52.604;13.438;2023-04-24T19:27:37;11.22;65.28
13091;DHT22;6611;52.604;13.438;2023-04-24T19:32:40;11.11;65.89
13091;DHT22;6611;52.604;13.438;2023-04-24T19:37:42;11.22;65.83
13091;DHT22;6611;52.604;13.438;2023-04-24T19:42:44;11.10;66.04
13091;DHT22;6611;52.604;13.438;2023-04-24T19:47:47;10.93;66.67
13091;DHT22;6611;52.604;13.438;2023-04-24T19:52:49;10.89;67.02
13091;DHT22;6611;52.604;13.438;2023-04-24T19:57:51;10.68;68.10
13091;DHT22;6611;52.604;13.438;2023-04-24T20:02:54;10.80;67.71
13091;DHT22;6611;52.604;13.438;2023-04-24T20:07:56;10.83;67.06
13091;DHT22;6611;52.604;13.438;2023-04-24T20:12:58;10.73;67.79
13091;DHT22;6611;52.604;13.438;2023-04-24T20:18:01;10.66;68.05
13091;DHT22;6611;52.604;13.438;2023-04-24T20:23:03;10.63;68.15
13091;DHT22;6611;52.604;13.438;2023-04-24T20:28:05;10.46;68.86
13091;DHT22;6611;52.604;13.438;2023-04-24T20:33:08;10.45;68.66
13091;DHT22;6611;52.604;13.438;2023-04-24T20:38:10;10.38;68.67
13091;DHT22;6611;52.604;13.438;2023-04-24T20:43:12;10.38;69.07
13091;DHT22;6611;52.604;13.438;2023-04-24T20:48:15;10.42;68.99
13091;DHT22;6611;52.604;13.438;2023-04-24T20:53:17;10.44;68.87
13091;DHT22;6611;52.604;13.438;2023-04-24T20:58:18;10.44;69.68
13091;DHT22;6611;52.604;13.438;2023-04-24T21:03:22;10.46;69.45
13091;DHT22;6611;52.604;13.438;2023-04-24T21:08:24;10.42;69.53
13091;DHT22;6611;52.604;13.438;2023-04-24T21:13:26;10.41;69.71
13091;DHT22;6611;52.604;13.438;2023-04-24T21:18:29;10.30;70.20
13091;DHT22;6611;52.604;13.438;2023-04-24T21:23:31;10.25;70.68
13091;DHT22;6611;52.604;13.438;2023-04-24T21:28:32;10.20;70.91
13091;DHT22;6611;52.604;13.438;2023-04-24T21:33:36;10.15;70.81
13091;DHT22;6611;52.604;13.438;2023-04-24T21:38:37;10.06;71.91
13091;DHT22;6611;52.604;13.438;2023-04-24T21:43:40;10.00;72.34
13091;DHT22;6611;52.604;13.438;2023-04-24T21:48:43;9.98;72.78
13091;DHT22;6611;52.604;13.438;2023-04-24T21:53:45;10.00;72.95
13091;DHT22;6611;52.604;13.438;2023-04-24T21:58:46;10.01;72.79
13091;DHT22;6611;52.604;13.438;2023-04-24T22:03:49;10.07;72.95
13091;DHT22;6611;52.604;13.438;2023-04-24T22:08:51;10.04;73.06
13091;DHT22;6611;52.604;13.438;2023-04-24T22:13:53;10.06;73.54
13091;DHT22;6611;52.604;13.438;2023-04-24T22:18:56;10.04;73.69
13091;DHT22;6611;52.604;13.438;2023-04-24T22:23:58;9.97;74.66
13091;DHT22;6611;52.604;13.438;2023-04-24T22:28:59;10.06;74.05
13091;DHT22;6611;52.604;13.438;2023-04-24T22:34:02;10.10;74.26
13091;DHT22;6611;52.604;13.438;2023-04-24T22:39:04;10.13;74.10
13091;DHT22;6611;52.604;13.438;2023-04-24T22:44:06;10.13;73.70
13091;DHT22;6611;52.604;13.438;2023-04-24T22:49:09;10.07;73.71
13091;DHT22;6611;52.604;13.438;2023-04-24T22:54:11;9.94;74.01
13091;DHT22;6611;52.604;13.438;2023-04-24T22:59:13;9.97;73.85
13091;DHT22;6611;52.604;13.438;2023-04-24T23:04:16;9.89;74.15
13091;DHT22;6611;52.604;13.438;2023-04-24T23:09:17;9.86;74.25
13091;DHT22;6611;52.604;13.438;2023-04-24T23:14:19;9.83;74.30
13091;DHT22;6611;52.604;13.438;2023-04-24T23:19:22;9.79;74.62
13091;DHT22;6611;52.604;13.438;2023-04-24T23:24:24;9.83;74.91
13091;DHT22;6611;52.604;13.438;2023-04-24T23:29:26;9.86;74.69
13091;DHT22;6611;52.604;13.438;2023-04-24T23:34:29;9.85;74.07
13091;DHT22;6611;52.604;13.438;2023-04-24T23:39:33;9.87;74.18
13091;DHT22;6611;52.604;13.438;2023-04-24T23:44:35;9.89;73.05
13091;DHT22;6611;52.604;13.438;2023-04-24T23:49:38;9.82;72.92
13091;DHT22;6611;52.604;13.438;2023-04-24T23:54:40;9.79;72.51
13091;DHT22;6611;52.604;13.438;2023-04-24T23:59:41;9.80;72.41
